MMMXMMMM

Guest
Details From MMMX - Licenciado Benito Juarez Intl
To MMMM - GENERAL FRANCISCO J MUJICA INTL
Flight Number -
Tags generated
Created
Modified
Stats Distance 113 nm / 210 km
Max Altitude 14,000 ft / 4,267 m
Waypoints 3
Social Downloads 2
Likes 0
Share VATSIM

Download

Looking for another format? Having issues loading an existing format? Contact us
Advertisement - Login to hide

Notes

Basic altitude profile: - Ascent Rate: 2500ft/min - Ascent Speed: 250kts - Cruise Altitude: 35000ft - Cruise Speed: 420kts - Descent Rate: 1500ft/min - Descent Speed: 250kts Options: - Use NATs: no - Use PACOTS: no - Use low airways: yes - Use high airways: no

Route

MMMX PTJ MMMM

ID Type Via Altitude Latitude Longitude Leg Dist Tot Dist Heading (true) Name
O MMMX APT - 0 ft / 0 m 19.43631˚ -99.07210˚ - 0 nm - Licenciado Benito Juarez Intl
PTJ VOR - 14,000 ft / 4,267 m 19.64569˚ -99.79803˚ 42 nm 42 nm 287° / 287° PASTEJE VOR-DME
O MMMM APT - 0 ft / 0 m 19.85049˚ -101.02526˚ 70 nm 113 nm 280° / 280° GENERAL FRANCISCO J MUJICA INTL

Altitude Profile

Advertisement - Login to hide

MMMX

Details ICAO MMMX (MEX)
Name Licenciado Benito Juarez Intl
Region Mexico
Timezone America/Mexico_City (UTC-6.0)
Stats Elevation 7,316 ft / 2,230 m (AMSL)
Location 19.436308° -99.072104°
Runways 2
Magnetic Variation 4.650° E

METAR

MMMX 102348Z 32007KT 8SM SCT200 16/M12 A3041 NOSIG RMK SLP220 52003 935 8/002 HZY

Decode

TAF

TAF MMMX 102305Z 1100/1206 33008KT 6SM HZ SCT200 TX18/1121Z TN02/1112Z FM110400 00000KT 6SM HZ BKN200 FM111800 03010KT 6SM HZ SCT100 BKN200 FM120400 03005KT 6SM HZ SCT100 BKN20

Decode

Departure Runways

ID Width Length Bearing (true) Bearing (mag) Surface Threshold Offset Overrun Length
05L 148 ft / 45 m 12,951 ft / 3,948 m 59.25° 54.60° Asphalt 1,033 ft / 315 m 0 ft / 0 m
05R 148 ft / 45 m 12,800 ft / 3,902 m 59.26° 54.61° Asphalt 1,493 ft / 455 m 0 ft / 0 m
23L 148 ft / 45 m 12,800 ft / 3,902 m 239.28° 234.63° Asphalt 0 ft / 0 m 200 ft / 61 m
23R 148 ft / 45 m 12,951 ft / 3,948 m 239.27° 234.62° Asphalt 1,640 ft / 500 m 0 ft / 0 m

MMMM

Details ICAO MMMM (MLM)
Name GENERAL FRANCISCO J MUJICA INTL
Region Mexico
Timezone America/Mexico_City (UTC-6.0)
Stats Elevation 6,033 ft / 1,839 m (AMSL)
Location 19.850494° -101.025263°
Runways 1
Magnetic Variation 5.418° E

METAR

MMMM 102246Z 33008KT 8SM BKN250 19/M06 A3031 RMK 8/008

Decode

TAF

TAF MMMM 102316Z 1100/1206 33008KT 6SM HZ BKN250 FM110500 03005KT 6SM HZ BKN250 FM111800 03010KT P6SM BKN250 FM120400 03005KT P6SM BKN250

Decode

Destination Runways

ID Width Length Bearing (true) Bearing (mag) Surface Threshold Offset Overrun Length
05 148 ft / 45 m 11,164 ft / 3,403 m 54.53° 49.11° Asphalt 0 ft / 0 m 190 ft / 58 m
23 148 ft / 45 m 11,164 ft / 3,403 m 234.54° 229.12° Asphalt 0 ft / 0 m 190 ft / 58 m

Popular Alternatives